»·PEaware :: N2298W CL46-L88

N2298W :: CL46-L88

FLIGHT INFORMATION

Flight Status: Arrived
Operator: Privately registered:
United States
More flights under this callsign
Pilot: Louis G. (16930)
Aircraft: CESSNA 172 SKYHAWK
(C172)
More flights by this aircraft type
Origin: CL46 Quail Lake Sky Park
Canada
Destination: L88 New Cuyama
United States
More flights between these airports :: More routes between these airports
Route:
File this flight plan on PilotEdge
Remarks:
Altitude:
(Current/Filed)
6,500ft
Speed:
(Current/Filed)
110kts
Departed: 15-Jan-18 12:52 PM
Arrived: 15-Jan-18 01:43 PM
Distance/Time
Traveled:
48nm/0:51
Distance/Time
To Go:
Arrived

Flight Plot

Page will automatically refresh every two minutes.

Flight plan parsing failed; only flown route is shown


Map Options




Map Legend


Flown Route
Filed Route
Departure Airport
Arrival Airport
Navaid (VOR, NDB)
Fix

Horizontal Profiles

Position Reports

Time Latitude Longitude Heading Altitude Ground
Speed
15-Jan-18 12:43 34.767929 -118.736047 73 3374ft 0kts
15-Jan-18 12:44 34.767929 -118.736047 73 3374ft 0kts
15-Jan-18 12:45 34.767929 -118.736047 73 3374ft 0kts
15-Jan-18 12:46 34.767929 -118.736047 73 3374ft 0kts
15-Jan-18 12:47 34.767929 -118.736047 73 3374ft 0kts
15-Jan-18 12:48 34.767929 -118.736047 73 3374ft 0kts
15-Jan-18 12:49 34.767929 -118.736047 73 3374ft 0kts
15-Jan-18 12:50 34.767929 -118.736047 73 3374ft 0kts
15-Jan-18 12:51 34.767929 -118.736047 73 3374ft 0kts
15-Jan-18 12:52 34.767929 -118.736047 73 3374ft 0kts
15-Jan-18 12:53 34.767940 -118.735985 75 3374ft 0kts
15-Jan-18 12:54 34.768021 -118.735811 345 3374ft 2kts
15-Jan-18 12:55 34.768035 -118.735825 305 3374ft 0kts
15-Jan-18 12:56 34.768113 -118.735871 310 3374ft 0kts
15-Jan-18 12:57 34.768246 -118.735682 99 3374ft 8kts
15-Jan-18 12:58 34.763621 -118.713421 108 3787ft 85kts
15-Jan-18 12:59 34.775633 -118.699231 321 4496ft 80kts
15-Jan-18 13:00 34.783632 -118.723332 283 5229ft 79kts
15-Jan-18 13:01 34.788652 -118.749220 282 5941ft 79kts
15-Jan-18 13:02 34.793391 -118.775823 282 6519ft 90kts
15-Jan-18 13:03 34.800766 -118.810080 286 6550ft 114kts
15-Jan-18 13:04 34.809852 -118.845364 287 6543ft 112kts
15-Jan-18 13:05 34.820014 -118.879796 285 6467ft 109kts
15-Jan-18 13:06 34.826219 -118.915935 275 6342ft 109kts
15-Jan-18 13:07 34.826101 -118.952485 263 6234ft 110kts
15-Jan-18 13:08 34.821343 -118.982005 253 6190ft 110kts
15-Jan-18 13:09 34.804952 -119.012748 235 6244ft 109kts
15-Jan-18 13:10 34.784731 -119.038425 218 6097ft 94kts
15-Jan-18 13:11 34.768607 -119.052186 223 5543ft 60kts
15-Jan-18 13:12 34.758604 -119.063100 221 5112ft 7kts
15-Jan-18 13:13 34.757687 -119.064094 221 5104ft 7kts
15-Jan-18 13:14 34.755929 -119.065828 190 5088ft 8kts
15-Jan-18 13:15 34.759255 -119.057710 79 5143ft 67kts
15-Jan-18 13:16 34.770145 -119.043091 340 5647ft 77kts
15-Jan-18 13:17 34.773716 -119.063991 250 6281ft 79kts
15-Jan-18 13:18 34.762996 -119.089996 240 6556ft 95kts
15-Jan-18 13:19 34.749116 -119.118249 241 6650ft 100kts
15-Jan-18 13:20 34.738221 -119.149120 266 6695ft 103kts
15-Jan-18 13:21 34.747179 -119.184113 285 6659ft 114kts
15-Jan-18 13:22 34.755539 -119.221700 279 6595ft 118kts
15-Jan-18 13:23 34.765278 -119.259456 283 6527ft 118kts
15-Jan-18 13:24 34.774691 -119.297683 281 6448ft 120kts
15-Jan-18 13:25 34.781561 -119.336626 285 6430ft 114kts
15-Jan-18 13:26 34.792091 -119.371059 295 6464ft 106kts
15-Jan-18 13:27 34.805055 -119.402258 301 6685ft 104kts
15-Jan-18 13:28 34.820636 -119.430530 310 7010ft 104kts
15-Jan-18 13:29 34.836975 -119.454163 312 7281ft 105kts
15-Jan-18 13:30 34.848836 -119.467935 313 7427ft 100kts
15-Jan-18 13:31 34.855860 -119.481260 294 7055ft 104kts
15-Jan-18 13:32 34.861385 -119.497403 299 6510ft 106kts
15-Jan-18 13:33 34.871793 -119.516221 308 5859ft 105kts
15-Jan-18 13:34 34.880305 -119.529724 307 5329ft 106kts
15-Jan-18 13:35 34.886139 -119.541139 299 4917ft 106kts
15-Jan-18 13:36 34.889967 -119.552345 297 4551ft 105kts
15-Jan-18 13:37 34.895091 -119.563314 303 4165ft 105kts
15-Jan-18 13:38 34.899996 -119.574594 299 3780ft 104kts
15-Jan-18 13:39 34.904739 -119.587479 296 3392ft 104kts
15-Jan-18 13:40 34.909312 -119.598994 298 3207ft 96kts
15-Jan-18 13:41 34.913506 -119.609116 295 3074ft 94kts
15-Jan-18 13:42 34.916967 -119.619160 291 3015ft 93kts
15-Jan-18 13:43 34.920106 -119.629435 290 2943ft 93kts
15-Jan-18 13:44 34.922765 -119.638616 291 2885ft 93kts
15-Jan-18 13:45 34.925988 -119.648810 292 2813ft 90kts
15-Jan-18 13:46 34.929943 -119.660571 293 2576ft 85kts
15-Jan-18 13:47 34.934142 -119.671515 299 2296ft 76kts
15-Jan-18 13:48 34.938203 -119.681244 295 2194ft 63kts
15-Jan-18 13:49 34.940504 -119.686299 331 2173ft 7kts
15-Jan-18 13:50 34.940613 -119.686714 294 2171ft 17kts
15-Jan-18 13:51 34.942337 -119.690849 319 2156ft 18kts

Navigation Log

Ident Type
Flight plan parsing failed, navigation log unavailable